This is the latest recevied weather packets stored in our database for station/object KG5CK-1. If no packets are shown the sender has not sent any weather packets the latest 10 day(s).
| Time | Temp. | Humidity | Pressure | Rain* | Wind** | Luminosity | Snow |
|---|---|---|---|---|---|---|---|
| 1778267283 | 26.67° C | 63% | 1006.7 hPa | 0 mm | 0.89 m/s, 110° | - | - |
| 1778267223 | 26.67° C | 63% | 1006.7 hPa | 0 mm | 0.89 m/s, 110° | - | - |
| 1778267162 | 26.67° C | 63% | 1006.7 hPa | 0 mm | 0.89 m/s, 110° | - | - |
| 1778267103 | 26.67° C | 63% | 1006.7 hPa | 0 mm | 0.89 m/s, 110° | - | - |
| 1778267043 | 26.11° C | 64% | 1006.8 hPa | 0 mm | 0.89 m/s, 137° | - | - |
| 1778266983 | 26.11° C | 64% | 1006.8 hPa | 0 mm | 0.89 m/s, 137° | - | - |
| 1778266923 | 26.11° C | 64% | 1006.8 hPa | 0 mm | 0.89 m/s, 137° | - | - |
| 1778266863 | 26.11° C | 64% | 1006.8 hPa | 0 mm | 0.89 m/s, 137° | - | - |
| 1778266802 | 25.56° C | 64% | 1006.9 hPa | 0 mm | 1.34 m/s, 105° | - | - |
| 1778266743 | 25.56° C | 64% | 1006.9 hPa | 0 mm | 1.34 m/s, 105° | - | - |
| 1778266682 | 25.56° C | 64% | 1006.9 hPa | 0 mm | 1.34 m/s, 105° | - | - |
| 1778266623 | 25.56° C | 64% | 1006.9 hPa | 0 mm | 1.34 m/s, 105° | - | - |
| 1778266562 | 25.56° C | 64% | 1006.9 hPa | 0 mm | 1.34 m/s, 105° | - | - |
| 1778266503 | 26.11° C | 62% | 1006.6 hPa | 0 mm | 2.24 m/s, 138° | - | - |
| 1778266443 | 26.11° C | 62% | 1006.6 hPa | 0 mm | 2.24 m/s, 138° | - | - |
| 1778266383 | 26.11° C | 62% | 1006.6 hPa | 0 mm | 2.24 m/s, 138° | - | - |
| 1778266322 | 26.11° C | 62% | 1006.6 hPa | 0 mm | 2.24 m/s, 138° | - | - |
| 1778266262 | 26.11° C | 62% | 1006.6 hPa | 0 mm | 2.24 m/s, 138° | - | - |
| 1778266202 | 26.11° C | 62% | 1007.1 hPa | 0 mm | 0.89 m/s, 60° | - | - |
| 1778266142 | 26.11° C | 62% | 1007.1 hPa | 0 mm | 0.89 m/s, 60° | - | - |
| 1778266083 | 26.11° C | 62% | 1007.1 hPa | 0 mm | 0.89 m/s, 60° | - | - |
| 1778266023 | 26.11° C | 62% | 1007.1 hPa | 0 mm | 0.89 m/s, 60° | - | - |
| 1778265963 | 26.11° C | 62% | 1007.1 hPa | 0 mm | 0.89 m/s, 60° | - | - |
| 1778265903 | 26.11° C | 62% | 1006.9 hPa | 0 mm | 0.89 m/s, 96° | - | - |
| 1778265843 | 26.11° C | 62% | 1006.9 hPa | 0 mm | 0.89 m/s, 96° | - | - |
* Rain latest hour (hover to see other rain measurements)
** Current wind speed in m/s (hover to see current wind gust speed)